Time;durP1;ratioP1;P1;durP2;ratioP2;P2;SDS_P1;SDS_P2;PMS_P1;PMS_P2;Temp;Humidity;BMP_temperature;BMP_pressure;BME280_temperature;BME280_humidity;BME280_pressure;Samples;Min_cycle;Max_cycle;Signal;HPM_P1;HPM_P2
2023/03/16 00:02:15;;;;;;;3.23;1.33;;;;;;;1.67;72.65;101344.84;5041855;28;20281;-77
2023/03/16 00:04:41;;;;;;;2.27;1.03;;;;;;;1.71;72.91;101393.00;5043108;28;20294;-77
2023/03/16 00:07:09;;;;;;;2.37;1.10;;;;;;;1.68;74.07;101401.47;5042344;22;20236;-77
2023/03/16 00:09:40;;;;;;;2.17;1.03;;;;;;;1.66;74.53;101397.13;5021682;28;20263;-77
2023/03/16 00:12:08;;;;;;;3.63;0.90;;;;;;;1.57;74.39;101392.56;5021207;28;20286;-77
2023/03/16 00:14:34;;;;;;;3.23;1.17;;;;;;;1.50;74.64;101394.03;5024248;28;20238;-78
2023/03/16 00:17:01;;;;;;;1.73;0.93;;;;;;;1.54;74.71;101377.88;5023970;28;20216;-78
2023/03/16 00:19:27;;;;;;;4.60;1.20;;;;;;;1.46;74.58;101381.88;5022570;28;20741;-78
2023/03/16 00:21:53;;;;;;;0.97;0.90;;;;;;;1.55;74.70;101374.47;5024341;28;20199;-78
2023/03/16 00:24:23;;;;;;;2.77;1.20;;;;;;;1.51;74.49;101371.78;5021751;28;20202;-77
2023/03/16 00:26:53;;;;;;;3.40;1.17;;;;;;;1.55;73.29;101389.06;5022172;28;20222;-77
2023/03/16 00:29:21;;;;;;;2.93;1.30;;;;;;;1.61;73.84;101391.81;5023990;28;20574;-78
2023/03/16 00:31:48;;;;;;;3.83;1.07;;;;;;;1.58;74.31;101395.16;5022759;28;20738;-77
2023/03/16 00:34:15;;;;;;;2.27;1.00;;;;;;;1.56;73.70;101390.78;5025884;28;20202;-77
2023/03/16 00:36:41;;;;;;;2.57;1.03;;;;;;;1.52;73.66;101406.94;5023702;28;20226;-78
2023/03/16 00:39:10;;;;;;;1.97;1.03;;;;;;;1.53;73.79;101401.00;5020292;28;20261;-78
2023/03/16 00:41:36;;;;;;;3.70;1.00;;;;;;;1.56;73.19;101395.94;5015244;28;20228;-77
2023/03/16 00:44:04;;;;;;;2.00;1.00;;;;;;;1.55;73.18;101405.34;5014602;28;20302;-78
2023/03/16 00:46:31;;;;;;;0.83;0.70;;;;;;;1.56;72.66;101412.25;5014011;28;20271;-78
2023/03/16 00:48:57;;;;;;;3.90;1.30;;;;;;;1.55;73.41;101410.50;5013653;28;20408;-78
2023/03/16 00:51:23;;;;;;;2.13;1.10;;;;;;;1.57;72.32;101433.72;5013707;28;20211;-78
2023/03/16 00:53:50;;;;;;;2.60;1.80;;;;;;;1.57;72.20;101442.31;5013590;28;20635;-78
2023/03/16 00:56:17;;;;;;;3.57;1.27;;;;;;;1.54;70.81;101431.91;5013693;28;20354;-78
2023/03/16 00:58:43;;;;;;;3.83;0.97;;;;;;;1.62;71.97;101455.31;5013715;28;20242;-78
2023/03/16 01:01:13;;;;;;;0.93;0.83;;;;;;;1.56;72.02;101455.13;5014046;28;20293;-78
2023/03/16 01:03:39;;;;;;;2.10;1.10;;;;;;;1.61;73.19;101450.16;5013583;28;20692;-78
2023/03/16 01:06:09;;;;;;;1.60;1.07;;;;;;;1.51;72.65;101434.38;5013744;28;20257;-78
2023/03/16 01:08:35;;;;;;;2.87;1.10;;;;;;;1.54;70.89;101426.75;5014101;28;20744;-78
2023/03/16 01:11:04;;;;;;;1.97;1.20;;;;;;;1.59;71.99;101444.94;5013908;28;20203;-78
2023/03/16 01:13:31;;;;;;;1.87;1.27;;;;;;;1.51;72.13;101442.09;5013722;28;20207;-78
2023/03/16 01:15:57;;;;;;;2.60;0.97;;;;;;;1.58;72.17;101451.75;5014046;28;20231;-77
2023/03/16 01:18:25;;;;;;;2.87;1.20;;;;;;;1.60;72.27;101446.66;5013476;28;20710;-77
2023/03/16 01:20:52;;;;;;;2.93;1.97;;;;;;;1.59;73.13;101434.66;5016947;28;20254;-77
2023/03/16 01:23:18;;;;;;;1.93;1.07;;;;;;;1.59;71.27;101442.38;5017254;28;20219;-78
2023/03/16 01:25:51;;;;;;;3.87;1.00;;;;;;;1.53;71.42;101462.75;5017125;28;20220;-78
2023/03/16 01:28:18;;;;;;;2.00;1.00;;;;;;;1.57;71.57;101467.19;5016404;28;20558;-78
2023/03/16 01:30:44;;;;;;;1.80;0.90;;;;;;;1.61;72.26;101452.72;5016962;28;20207;-77
2023/03/16 01:33:10;;;;;;;3.37;1.27;;;;;;;1.61;72.24;101445.88;5015909;28;20211;-78
2023/03/16 01:35:38;;;;;;;2.03;1.07;;;;;;;1.64;71.22;101450.22;5016427;28;20600;-78
2023/03/16 01:38:04;;;;;;;2.80;1.30;;;;;;;1.64;72.05;101453.66;5016620;28;20278;-78
2023/03/16 01:40:30;;;;;;;2.27;1.10;;;;;;;1.66;72.34;101444.31;5016330;28;20305;-77
2023/03/16 01:43:03;;;;;;;2.83;0.97;;;;;;;1.63;72.69;101441.66;5015862;28;20208;-77
2023/03/16 01:46:14;;;;;;;1.53;1.20;;;;;;;1.56;72.04;101437.97;5015982;28;20262;-78
2023/03/16 01:48:46;;;;;;;2.27;1.60;;;;;;;1.49;69.36;101472.06;5016067;28;20658;-77
2023/03/16 01:51:19;;;;;;;2.57;0.97;;;;;;;1.53;72.02;101489.34;5015848;28;20615;-78
2023/03/16 01:53:48;;;;;;;1.97;0.83;;;;;;;1.55;71.70;101472.25;5015436;28;20235;-78
2023/03/16 01:56:20;;;;;;;2.30;1.10;;;;;;;1.51;71.61;101470.41;5015994;28;20252;-78
2023/03/16 01:58:46;;;;;;;3.67;1.20;;;;;;;1.50;72.16;101466.06;5015974;28;20208;-77
2023/03/16 02:01:13;;;;;;;5.40;0.90;;;;;;;1.48;72.99;101459.13;5015910;28;20265;-77
2023/03/16 02:03:42;;;;;;;3.93;1.50;;;;;;;1.45;73.99;101438.44;5015772;28;20233;-78
2023/03/16 02:06:13;;;;;;;2.73;0.97;;;;;;;1.40;73.13;101422.84;5015585;28;20240;-78
2023/03/16 02:08:44;;;;;;;2.60;1.20;;;;;;;1.38;73.99;101406.47;5016121;28;20270;-78
2023/03/16 02:11:12;;;;;;;2.23;1.10;;;;;;;1.38;73.78;101398.75;5016060;28;20208;-77
2023/03/16 02:13:38;;;;;;;2.63;0.97;;;;;;;1.35;74.06;101394.41;5015479;28;20199;-77
2023/03/16 02:16:07;;;;;;;3.33;1.00;;;;;;;1.36;74.34;101377.25;5015720;28;20277;-77
2023/03/16 02:18:33;;;;;;;2.43;0.97;;;;;;;1.31;73.76;101379.69;5016003;28;20262;-78
2023/03/16 02:21:12;;;;;;;5.07;1.03;;;;;;;1.31;73.91;101374.53;5015279;28;20277;-77
2023/03/16 02:23:38;;;;;;;3.47;0.90;;;;;;;1.31;74.65;101360.78;5015338;28;20245;-78
2023/03/16 02:26:14;;;;;;;2.57;1.10;;;;;;;1.30;74.11;101353.91;5015164;28;20289;-78
2023/03/16 02:28:49;;;;;;;2.07;1.00;;;;;;;1.23;74.08;101350.28;5015431;28;20263;-77
2023/03/16 02:31:18;;;;;;;4.23;1.33;;;;;;;1.14;74.73;101337.97;5014479;28;20246;-78
2023/03/16 02:33:47;;;;;;;2.10;1.13;;;;;;;1.13;73.86;101335.31;5015360;28;20212;-78
2023/03/16 02:36:14;;;;;;;2.07;1.00;;;;;;;1.08;74.38;101331.75;5015408;28;20227;-78
2023/03/16 02:38:41;;;;;;;3.07;1.60;;;;;;;1.06;74.52;101333.38;5015210;28;20234;-77
2023/03/16 02:41:12;;;;;;;0.90;0.80;;;;;;;0.99;73.59;101327.16;5015246;28;20227;-77
2023/03/16 02:43:41;;;;;;;1.97;0.97;;;;;;;0.95;73.91;101338.13;5014863;28;20557;-78
2023/03/16 02:46:08;;;;;;;1.53;0.90;;;;;;;0.95;73.90;101327.84;5014697;28;20274;-77
2023/03/16 02:48:43;;;;;;;2.20;1.00;;;;;;;0.87;73.96;101330.16;5015283;28;20254;-78
2023/03/16 02:51:10;;;;;;;3.47;0.90;;;;;;;0.90;74.54;101326.84;5014974;28;20203;-78
2023/03/16 02:53:37;;;;;;;2.07;1.07;;;;;;;0.93;74.24;101312.41;5014501;28;20585;-78
2023/03/16 02:56:03;;;;;;;5.57;1.00;;;;;;;0.89;74.20;101308.00;5014837;28;20274;-78
2023/03/16 02:58:30;;;;;;;1.23;0.93;;;;;;;0.87;74.95;101301.88;5014518;28;20241;-78
2023/03/16 03:00:57;;;;;;;24.00;1.50;;;;;;;0.84;74.78;101290.66;5015015;28;20232;-78
2023/03/16 03:03:23;;;;;;;1.90;1.00;;;;;;;0.81;73.97;101280.25;5014620;28;20210;-78
2023/03/16 03:05:51;;;;;;;2.67;1.13;;;;;;;0.88;74.23;101292.50;5015076;28;20262;-78
2023/03/16 03:08:19;;;;;;;2.20;1.00;;;;;;;0.81;72.90;101286.25;5014743;28;20636;-78
2023/03/16 03:10:45;;;;;;;1.87;1.03;;;;;;;0.92;73.26;101320.06;5015049;28;20203;-78
2023/03/16 03:13:12;;;;;;;2.13;1.20;;;;;;;1.03;74.15;101317.84;5015027;28;20210;-77
2023/03/16 03:15:39;;;;;;;3.03;0.93;;;;;;;0.97;73.52;101309.13;5015148;28;20261;-78
2023/03/16 03:18:05;;;;;;;1.40;0.70;;;;;;;0.97;74.38;101310.78;5014868;28;20673;-78
2023/03/16 03:20:32;;;;;;;2.20;0.90;;;;;;;1.03;74.44;101298.19;5015347;28;20241;-78
2023/03/16 03:23:00;;;;;;;1.30;0.80;;;;;;;0.95;74.86;101292.78;5014486;28;20243;-77
2023/03/16 03:25:26;;;;;;;2.70;0.90;;;;;;;0.85;76.22;101277.84;5011633;28;20660;-77
2023/03/16 03:27:54;;;;;;;0.87;0.80;;;;;;;0.86;76.07;101248.75;5014870;28;20213;-77
2023/03/16 03:30:23;;;;;;;2.57;0.80;;;;;;;0.86;76.48;101241.03;5014430;28;20209;-77
2023/03/16 03:32:51;;;;;;;2.10;0.93;;;;;;;0.85;76.45;101234.16;5014133;28;20214;-77
2023/03/16 03:35:17;;;;;;;2.40;0.93;;;;;;;0.84;75.96;101222.13;5014048;28;20203;-77
2023/03/16 03:37:44;;;;;;;1.73;0.90;;;;;;;0.81;76.82;101218.59;5014169;28;20204;-77
2023/03/16 03:40:14;;;;;;;0.87;0.87;;;;;;;0.82;76.13;101210.94;5013891;28;20837;-78
2023/03/16 03:42:41;;;;;;;1.53;0.93;;;;;;;0.81;76.66;101213.44;5013113;28;20258;-78
2023/03/16 03:45:11;;;;;;;1.10;0.80;;;;;;;0.78;76.64;101211.66;5014255;28;20230;-77
2023/03/16 03:47:37;;;;;;;2.70;1.50;;;;;;;0.77;76.39;101217.59;5013939;28;20333;-77
2023/03/16 03:50:04;;;;;;;3.17;0.87;;;;;;;0.72;76.31;101217.47;5013810;28;20203;-77
2023/03/16 03:52:31;;;;;;;2.40;1.20;;;;;;;0.72;76.60;101217.47;5013397;28;20230;-77
2023/03/16 03:54:57;;;;;;;1.53;1.03;;;;;;;0.61;77.01;101215.34;5013733;28;20208;-77
2023/03/16 03:57:25;;;;;;;3.03;1.33;;;;;;;0.58;76.84;101209.28;5013715;28;20277;-77
2023/03/16 03:59:51;;;;;;;2.33;1.13;;;;;;;0.59;76.56;101194.72;5013692;28;20253;-78
2023/03/16 04:02:17;;;;;;;3.27;1.37;;;;;;;0.59;76.79;101199.88;5013595;28;20362;-77
2023/03/16 04:04:44;;;;;;;3.10;1.20;;;;;;;0.52;77.23;101190.22;5013737;28;20208;-77
2023/03/16 04:07:10;;;;;;;2.40;1.20;;;;;;;0.53;76.73;101179.13;5013524;28;20725;-77
2023/03/16 04:09:37;;;;;;;3.63;1.30;;;;;;;0.55;76.89;101183.47;5013991;28;20277;-78
2023/03/16 04:12:05;;;;;;;3.23;1.30;;;;;;;0.50;76.93;101184.16;5014005;28;20238;-77
2023/03/16 04:14:33;;;;;;;5.57;1.30;;;;;;;0.42;76.91;101190.72;5013594;28;20207;-77
2023/03/16 04:17:00;;;;;;;1.67;1.17;;;;;;;0.47;77.42;101181.47;5013306;28;20231;-77
2023/03/16 04:19:27;;;;;;;3.57;1.40;;;;;;;0.31;77.45;101180.94;5013297;28;20215;-77
2023/03/16 04:21:53;;;;;;;3.47;1.03;;;;;;;0.33;77.91;101179.31;5013302;28;20275;-77
2023/03/16 04:24:21;;;;;;;1.97;0.90;;;;;;;0.30;78.33;101171.50;5012853;28;20671;-77
2023/03/16 04:26:48;;;;;;;1.77;1.13;;;;;;;0.29;78.70;101156.91;5012931;28;20713;-77
2023/03/16 04:29:16;;;;;;;1.17;0.97;;;;;;;0.31;78.48;101156.97;5013243;28;20620;-77
2023/03/16 04:31:45;;;;;;;2.93;1.10;;;;;;;0.38;78.35;101139.25;5013531;28;20208;-77
2023/03/16 04:34:12;;;;;;;1.57;0.90;;;;;;;0.34;77.60;101150.25;5013136;28;20242;-77
2023/03/16 04:36:38;;;;;;;3.07;1.20;;;;;;;0.33;77.75;101156.19;5013468;28;20767;-77
2023/03/16 04:39:05;;;;;;;1.40;1.17;;;;;;;0.28;77.35;101150.03;5012993;28;20234;-77
2023/03/16 04:41:32;;;;;;;1.87;1.13;;;;;;;0.24;77.69;101157.56;5013373;28;20269;-78
2023/03/16 04:43:58;;;;;;;1.23;1.10;;;;;;;0.26;77.97;101149.13;5012935;28;20664;-77
2023/03/16 04:46:25;;;;;;;1.93;1.13;;;;;;;0.30;77.97;101145.84;5013545;28;20228;-77
2023/03/16 04:48:57;;;;;;;1.10;0.90;;;;;;;0.27;79.06;101145.72;5012955;28;20225;-77
2023/03/16 04:51:23;;;;;;;3.17;1.00;;;;;;;0.23;79.13;101131.03;5013060;28;20687;-77
2023/03/16 04:53:50;;;;;;;2.23;1.43;;;;;;;0.20;78.72;101125.81;5012686;28;20277;-77
2023/03/16 04:56:18;;;;;;;1.97;1.33;;;;;;;0.15;79.69;101130.75;5013119;28;20249;-78
2023/03/16 04:58:44;;;;;;;2.97;1.10;;;;;;;0.15;79.55;101109.38;5013227;28;20202;-77
2023/03/16 05:01:12;;;;;;;1.07;0.97;;;;;;;0.19;79.14;101106.06;5013174;28;20206;-77
2023/03/16 05:03:38;;;;;;;1.70;1.43;;;;;;;0.17;78.57;101106.03;5013013;28;20209;-77
2023/03/16 05:06:06;;;;;;;3.23;1.00;;;;;;;0.14;78.93;101116.19;5013020;28;20242;-77
2023/03/16 05:08:33;;;;;;;1.00;0.90;;;;;;;0.09;78.78;101117.72;5013045;28;20246;-77
2023/03/16 05:10:59;;;;;;;2.53;1.57;;;;;;;0.08;79.61;101120.22;5013143;28;20235;-77
2023/03/16 05:13:26;;;;;;;2.70;1.13;;;;;;;0.12;78.98;101120.41;5012993;28;20220;-77
2023/03/16 05:15:53;;;;;;;2.43;1.23;;;;;;;0.14;79.09;101117.88;5013329;28;20284;-77
2023/03/16 05:18:20;;;;;;;2.93;1.43;;;;;;;0.11;79.70;101113.50;5013037;28;20679;-77
2023/03/16 05:20:49;;;;;;;2.00;1.07;;;;;;;0.12;79.83;101099.88;5013618;28;20312;-77
2023/03/16 05:23:17;;;;;;;3.47;1.40;;;;;;;0.13;79.25;101105.88;5012341;28;20263;-77
2023/03/16 05:25:43;;;;;;;1.67;0.93;;;;;;;0.16;79.38;101108.56;5012808;28;20262;-77
2023/03/16 05:28:09;;;;;;;2.30;1.20;;;;;;;0.20;79.75;101112.97;5013504;28;20258;-78
2023/03/16 05:30:36;;;;;;;1.63;1.20;;;;;;;0.22;79.11;101107.88;5012942;28;20239;-78
2023/03/16 05:33:03;;;;;;;1.33;1.10;;;;;;;0.23;79.96;101101.94;5012935;28;20199;-77
2023/03/16 05:35:29;;;;;;;5.00;1.43;;;;;;;0.23;80.04;101100.22;5013433;28;20227;-77
2023/03/16 05:37:56;;;;;;;2.07;1.13;;;;;;;0.23;79.30;101102.78;5013085;28;20276;-78
2023/03/16 05:40:23;;;;;;;2.60;1.37;;;;;;;0.24;80.05;101101.09;5012773;28;20210;-78
2023/03/16 05:42:55;;;;;;;2.10;1.57;;;;;;;0.24;79.76;101086.59;5012540;28;20668;-77
2023/03/16 05:45:22;;;;;;;4.20;1.13;;;;;;;0.26;79.75;101079.81;5013050;28;20231;-77
2023/03/16 05:47:48;;;;;;;2.73;1.83;;;;;;;0.22;79.79;101074.50;5013461;28;20207;-78
2023/03/16 05:50:16;;;;;;;2.07;0.90;;;;;;;0.22;80.39;101079.63;5013194;28;20236;-78
2023/03/16 05:52:44;;;;;;;3.40;1.23;;;;;;;0.28;80.20;101074.69;5012952;28;20277;-77
2023/03/16 05:55:11;;;;;;;1.83;0.90;;;;;;;0.29;79.95;101085.03;5011234;28;20210;-78
2023/03/16 05:57:40;;;;;;;2.20;0.97;;;;;;;0.29;80.22;101076.44;5012668;28;20212;-77
2023/03/16 06:00:13;;;;;;;1.20;1.10;;;;;;;0.28;81.35;101067.88;5013065;28;20206;-77
2023/03/16 06:02:40;;;;;;;1.73;1.20;;;;;;;0.27;81.14;101062.69;5012702;28;20702;-77
2023/03/16 06:05:07;;;;;;;2.07;1.40;;;;;;;0.32;81.23;101044.06;5013322;28;20234;-78
2023/03/16 06:07:33;;;;;;;2.33;1.43;;;;;;;0.36;81.05;101025.34;5016691;28;20212;-78
2023/03/16 06:10:00;;;;;;;2.50;1.33;;;;;;;0.34;81.08;101021.88;5016085;28;20238;-78
2023/03/16 06:12:26;;;;;;;1.77;1.03;;;;;;;0.47;80.88;101012.84;5015934;28;20257;-77
2023/03/16 06:14:53;;;;;;;4.77;1.37;;;;;;;0.55;80.11;101020.78;5016147;28;20234;-77
2023/03/16 06:17:20;;;;;;;2.27;1.20;;;;;;;0.63;79.75;101039.88;5015783;28;20709;-78
2023/03/16 06:19:46;;;;;;;3.27;1.30;;;;;;;0.71;79.88;101043.53;5016197;28;20208;-77
2023/03/16 06:22:13;;;;;;;2.37;1.13;;;;;;;0.82;79.23;101036.19;5015708;28;20235;-77
2023/03/16 06:24:40;;;;;;;2.47;1.23;;;;;;;0.87;77.29;101070.59;5015636;28;20211;-77
2023/03/16 06:27:06;;;;;;;2.27;1.50;;;;;;;0.88;77.28;101092.91;5015842;28;20234;-77
2023/03/16 06:29:33;;;;;;;2.07;1.20;;;;;;;0.98;77.56;101112.91;5015616;28;20265;-77
2023/03/16 06:32:00;;;;;;;2.87;1.53;;;;;;;1.08;77.08;101111.50;5015546;28;20207;-78
2023/03/16 06:34:26;;;;;;;2.60;1.37;;;;;;;1.19;76.50;101127.28;5015352;28;20841;-77
2023/03/16 06:36:53;;;;;;;1.97;1.20;;;;;;;1.36;75.36;101166.34;5015559;28;20259;-77
2023/03/16 06:39:20;;;;;;;1.83;1.27;;;;;;;1.50;74.87;101185.63;5015061;28;20239;-77
2023/03/16 06:41:46;;;;;;;4.40;1.10;;;;;;;1.60;74.68;101204.78;5014668;28;20765;-77
2023/03/16 06:44:12;;;;;;;6.13;1.40;;;;;;;1.74;74.28;101238.66;5015253;28;20213;-77
2023/03/16 06:46:39;;;;;;;1.50;1.40;;;;;;;1.83;75.26;101244.09;5015174;28;20258;-77
2023/03/16 06:49:06;;;;;;;2.63;2.10;;;;;;;1.93;75.43;101251.25;5014865;28;20265;-77
2023/03/16 06:51:33;;;;;;;1.60;1.33;;;;;;;1.98;75.95;101251.38;5014882;28;20253;-78
2023/03/16 06:54:00;;;;;;;1.90;1.13;;;;;;;2.07;75.67;101243.94;5014122;28;20956;-77
2023/03/16 06:56:26;;;;;;;2.00;1.37;;;;;;;2.18;74.34;101258.00;5014811;28;20223;-77
2023/03/16 06:58:53;;;;;;;3.40;1.83;;;;;;;2.16;73.06;101281.94;5014939;28;20206;-78
2023/03/16 07:01:19;;;;;;;1.33;1.23;;;;;;;2.31;73.55;101304.72;5014839;28;20211;-77
2023/03/16 07:03:45;;;;;;;2.83;1.40;;;;;;;2.46;73.76;101306.81;5014364;28;20266;-77
2023/03/16 07:06:13;;;;;;;3.27;1.23;;;;;;;2.42;73.85;101329.09;5014453;28;20243;-77
2023/03/16 07:08:41;;;;;;;2.17;1.27;;;;;;;2.57;72.65;101320.91;5014822;28;20242;-77
2023/03/16 07:11:07;;;;;;;3.67;1.83;;;;;;;2.56;72.70;101343.22;5014864;28;20712;-77
2023/03/16 07:13:34;;;;;;;1.50;1.23;;;;;;;2.59;72.57;101370.78;5014348;28;20200;-77
2023/03/16 07:16:00;;;;;;;1.50;1.10;;;;;;;2.68;73.17;101371.06;5014905;28;20231;-77
2023/03/16 07:18:29;;;;;;;2.73;1.67;;;;;;;2.71;72.87;101380.56;5015202;28;20235;-77
2023/03/16 07:20:55;;;;;;;5.43;2.50;;;;;;;2.83;72.46;101369.72;5014493;28;20211;-77
2023/03/16 07:23:23;;;;;;;2.57;1.47;;;;;;;2.86;70.06;101386.16;5018312;28;20251;-77
2023/03/16 07:25:50;;;;;;;2.57;1.20;;;;;;;2.93;69.69;101434.50;5019949;28;20307;-77
2023/03/16 07:28:17;;;;;;;4.67;1.20;;;;;;;3.02;70.98;101448.50;5021016;28;20198;-78
2023/03/16 07:30:44;;;;;;;3.97;1.50;;;;;;;3.08;70.75;101459.84;5024229;28;20227;-78
2023/03/16 07:33:11;;;;;;;1.40;1.30;;;;;;;3.10;70.08;101471.06;5024371;28;20203;-77
2023/03/16 07:35:37;;;;;;;1.57;1.27;;;;;;;3.21;70.24;101480.81;5022899;28;20636;-78
2023/03/16 07:38:03;;;;;;;2.37;1.50;;;;;;;3.25;70.20;101474.91;5024151;28;20202;-77
2023/03/16 07:40:33;;;;;;;2.27;1.20;;;;;;;3.27;68.99;101484.47;5025178;28;20245;-77
2023/03/16 07:42:59;;;;;;;2.97;1.80;;;;;;;3.35;69.18;101507.88;5022611;28;20223;-76
2023/03/16 07:45:26;;;;;;;2.57;1.30;;;;;;;3.35;70.33;101507.88;5023118;28;20221;-79
2023/03/16 07:47:52;;;;;;;3.10;1.13;;;;;;;3.37;68.83;101511.41;5025371;28;20232;-79
2023/03/16 07:50:18;;;;;;;2.53;1.20;;;;;;;3.46;68.40;101534.00;5024353;28;20203;-79
2023/03/16 07:52:46;;;;;;;1.30;1.17;;;;;;;3.56;68.92;101543.72;5023924;28;20224;-79
2023/03/16 07:55:12;;;;;;;3.87;1.53;;;;;;;3.66;68.14;101548.31;5020418;28;20214;-80
2023/03/16 07:57:41;;;;;;;2.77;1.23;;;;;;;3.70;67.61;101568.22;5027197;28;20206;-80
2023/03/16 08:00:08;;;;;;;3.80;1.20;;;;;;;3.76;68.17;101581.28;5024357;28;20200;-80
2023/03/16 08:02:34;;;;;;;3.17;1.73;;;;;;;3.91;68.49;101574.81;5021961;28;20302;-78
2023/03/16 08:05:01;;;;;;;1.87;1.40;;;;;;;4.00;67.17;101584.50;5024233;28;20236;-77
2023/03/16 08:07:27;;;;;;;2.60;1.27;;;;;;;4.09;66.95;101589.94;5026335;28;20272;-78
2023/03/16 08:09:53;;;;;;;3.10;1.37;;;;;;;4.08;66.32;101614.88;5033613;28;20249;-77
2023/03/16 08:12:20;;;;;;;1.70;1.23;;;;;;;4.15;66.06;101628.84;5024582;28;20221;-78
2023/03/16 08:14:48;;;;;;;3.83;1.60;;;;;;;4.13;65.73;101639.13;5024953;28;20225;-78
2023/03/16 08:17:14;;;;;;;2.63;1.20;;;;;;;4.10;65.30;101659.75;5016372;28;20654;-78
2023/03/16 08:19:41;;;;;;;2.33;1.20;;;;;;;4.16;64.63;101679.66;5014742;28;20246;-78
2023/03/16 08:22:07;;;;;;;2.57;1.00;;;;;;;4.10;64.09;101684.66;5014922;28;20206;-78
2023/03/16 08:24:34;;;;;;;3.43;1.27;;;;;;;4.15;63.81;101693.44;5013893;28;20241;-77
2023/03/16 08:27:00;;;;;;;2.37;1.40;;;;;;;4.16;62.95;101726.19;5012124;28;20438;-76
2023/03/16 08:29:27;;;;;;;2.27;1.13;;;;;;;4.11;60.95;101738.97;5012556;28;20451;-78
2023/03/16 08:31:55;;;;;;;1.60;1.10;;;;;;;4.21;65.17;101825.41;5012779;28;20207;-75
2023/03/16 08:34:21;;;;;;;1.53;1.07;;;;;;;4.51;67.53;101740.09;5011664;28;20204;-75
2023/03/16 08:36:48;;;;;;;1.73;1.02;;;;;;;4.66;64.10;101653.38;5019249;28;20495;-78
2023/03/16 08:39:15;;;;;;;2.57;1.33;;;;;;;4.89;69.86;101660.00;5022176;28;20252;-75
2023/03/16 08:41:41;;;;;;;3.27;1.20;;;;;;;5.15;73.80;101615.75;5012758;28;20583;-75
2023/03/16 08:44:08;;;;;;;2.87;0.90;;;;;;;5.14;63.59;101555.34;5012006;28;20233;-77
2023/03/16 08:46:34;;;;;;;2.33;1.07;;;;;;;5.18;64.65;101668.47;5012077;28;20705;-77
2023/03/16 08:49:02;;;;;;;3.40;1.30;;;;;;;5.20;65.31;101681.44;5011565;28;20466;-76
2023/03/16 08:51:29;;;;;;;1.67;1.00;;;;;;;5.34;62.58;101672.28;5013168;28;20237;-77
2023/03/16 08:53:56;;;;;;;3.33;1.57;;;;;;;5.56;69.82;101743.53;5012041;28;20245;-76
2023/03/16 08:56:22;;;;;;;1.37;1.07;;;;;;;5.49;62.02;101679.50;5011627;28;20249;-75
2023/03/16 08:58:50;;;;;;;1.57;1.10;;;;;;;5.46;62.10;101751.94;5011534;28;20238;-75
2023/03/16 09:01:18;;;;;;;2.67;1.00;;;;;;;5.42;59.58;101819.16;5011537;28;20630;-75
2023/03/16 09:03:45;;;;;;;2.60;1.00;;;;;;;5.65;64.73;101828.38;5011403;28;20230;-75
2023/03/16 09:06:15;;;;;;;1.37;1.00;;;;;;;5.74;61.97;101760.34;5011046;28;20617;-75
2023/03/16 09:08:43;;;;;;;1.53;1.10;;;;;;;5.57;57.06;101798.81;5011464;28;20238;-75
2023/03/16 09:11:13;;;;;;;2.07;1.00;;;;;;;5.61;59.75;101893.00;5011547;28;20214;-75
2023/03/16 09:13:39;;;;;;;4.37;1.10;;;;;;;5.73;62.70;101850.16;5010792;28;20210;-75
2023/03/16 09:16:08;;;;;;;2.43;1.10;;;;;;;5.91;62.26;101813.41;5010356;28;20917;-74
2023/03/16 09:18:35;;;;;;;3.73;1.10;;;;;;;5.94;61.47;101829.00;5011118;28;20693;-75
2023/03/16 09:21:03;;;;;;;1.97;1.10;;;;;;;6.04;59.86;101793.84;5013016;28;20233;-75
2023/03/16 09:23:33;;;;;;;2.20;1.10;;;;;;;6.34;67.72;101836.81;5015648;28;20222;-74
2023/03/16 09:26:00;;;;;;;1.23;1.00;;;;;;;6.36;59.97;101732.31;5016156;28;20222;-76
2023/03/16 09:28:27;;;;;;;2.00;1.20;;;;;;;6.14;56.54;101779.38;5021240;28;20244;-75
2023/03/16 09:31:00;;;;;;;2.27;1.07;;;;;;;6.00;57.90;101874.97;5021822;28;20252;-75
2023/03/16 09:33:27;;;;;;;2.87;1.30;;;;;;;5.87;57.05;101904.03;5019733;28;20624;-74
2023/03/16 09:35:56;;;;;;;2.03;0.90;;;;;;;5.87;56.88;101920.44;5019920;28;20711;-74
2023/03/16 09:38:24;;;;;;;3.57;0.97;;;;;;;5.87;58.11;101942.91;5020069;28;20767;-74
2023/03/16 09:40:57;;;;;;;2.60;0.90;;;;;;;6.05;60.33;101913.97;5020809;28;20198;-75
2023/03/16 09:43:42;;;;;;;1.40;1.00;;;;;;;6.04;58.97;101894.94;5022724;28;20706;-74
2023/03/16 09:46:14;;;;;;;1.47;0.93;;;;;;;5.99;57.65;101899.16;5024306;28;21681;-76
2023/03/16 09:48:41;;;;;;;3.53;1.27;;;;;;;5.91;56.91;101918.81;5022042;28;20195;-76
2023/03/16 09:51:16;;;;;;;2.23;1.23;;;;;;;5.85;55.68;101940.25;5023844;28;20268;-76
2023/03/16 09:53:43;;;;;;;2.10;1.13;;;;;;;5.93;58.08;101974.13;5023550;28;20198;-76
2023/03/16 09:56:16;;;;;;;2.57;1.53;;;;;;;6.02;56.75;101914.75;5021245;28;20262;-78
2023/03/16 09:58:42;;;;;;;2.80;1.10;;;;;;;5.95;53.82;101926.72;5023814;28;20749;-77
2023/03/16 10:01:17;;;;;;;2.20;0.97;;;;;;;6.12;55.64;101991.03;5026039;28;20210;-76
2023/03/16 10:03:59;;;;;;;1.80;1.20;;;;;;;6.20;55.93;101988.63;5023740;28;20664;-76
2023/03/16 10:06:26;;;;;;;1.40;1.13;;;;;;;6.17;54.93;101992.03;5022857;28;20280;-76
2023/03/16 10:09:01;;;;;;;1.33;1.00;;;;;;;6.21;53.91;102012.00;5023189;28;20230;-76
2023/03/16 10:11:32;;;;;;;1.30;0.80;;;;;;;6.31;55.84;102039.91;5023255;28;20205;-76
2023/03/16 10:14:09;;;;;;;4.33;1.20;;;;;;;6.39;54.35;102016.75;5020494;28;20195;-76
2023/03/16 10:16:39;;;;;;;2.00;1.00;;;;;;;6.46;53.93;102080.03;5022278;28;20219;-77
2023/03/16 10:19:12;;;;;;;3.87;1.10;;;;;;;6.46;53.28;102067.97;5020881;28;20205;-76
2023/03/16 10:21:40;;;;;;;3.77;1.30;;;;;;;6.54;53.62;102079.41;5016904;28;20271;-77
2023/03/16 10:24:16;;;;;;;1.70;1.00;;;;;;;6.68;55.52;102068.44;5014892;28;20269;-77
2023/03/16 10:26:50;;;;;;;2.03;1.10;;;;;;;6.72;53.88;102042.63;5015510;28;20277;-77
2023/03/16 10:29:16;;;;;;;1.57;0.90;;;;;;;6.86;53.43;102055.91;5015799;28;20451;-77
2023/03/16 10:31:43;;;;;;;1.93;1.30;;;;;;;7.05;56.24;102067.56;5015898;28;20213;-77
2023/03/16 10:34:09;;;;;;;1.63;1.00;;;;;;;7.11;54.44;102046.91;5015196;28;20637;-76
2023/03/16 10:36:39;;;;;;;2.13;0.90;;;;;;;7.22;53.80;102062.75;5015566;28;20289;-76
2023/03/16 10:39:08;;;;;;;2.47;1.00;;;;;;;7.24;54.73;102070.56;5015160;28;20210;-76
2023/03/16 10:41:36;;;;;;;1.83;1.23;;;;;;;7.21;53.79;102062.69;5015101;28;20634;-76
2023/03/16 10:44:10;;;;;;;2.43;1.20;;;;;;;7.23;52.47;102080.06;5006130;28;20227;-76
2023/03/16 10:46:39;;;;;;;1.47;1.20;;;;;;;7.21;51.72;102107.72;5003754;28;20214;-76
2023/03/16 10:49:07;;;;;;;1.83;0.90;;;;;;;7.20;51.47;102123.28;5002927;28;20919;-76
2023/03/16 10:51:37;;;;;;;1.30;0.83;;;;;;;7.15;51.74;102126.66;5004152;28;20700;-76
2023/03/16 10:54:13;;;;;;;0.83;0.80;;;;;;;7.19;51.73;102139.69;5006019;28;20203;-77
2023/03/16 10:56:39;;;;;;;0.93;0.80;;;;;;;7.14;50.97;102142.22;5021581;28;20219;-76
2023/03/16 10:59:30;;;;;;;1.87;1.20;;;;;;;7.27;51.84;102177.09;5014167;28;20264;-76
2023/03/16 11:01:57;;;;;;;2.53;1.67;;;;;;;7.38;53.77;102152.25;5004889;28;20768;-76
2023/03/16 11:04:24;;;;;;;1.93;1.53;;;;;;;7.59;53.12;102096.38;5004056;28;20261;-76
2023/03/16 11:06:54;;;;;;;2.63;1.40;;;;;;;7.69;51.41;102094.00;5004066;28;20239;-76
2023/03/16 11:09:23;;;;;;;2.57;1.50;;;;;;;7.70;52.06;102113.94;5002713;28;20204;-76
2023/03/16 11:11:51;;;;;;;2.93;1.10;;;;;;;7.70;49.98;102111.34;5002845;28;20207;-76
2023/03/16 11:14:23;;;;;;;3.13;1.87;;;;;;;7.74;50.26;102144.34;5004489;28;20277;-76
2023/03/16 11:16:53;;;;;;;3.27;1.13;;;;;;;7.92;51.53;102150.75;5015768;28;20230;-76
2023/03/16 11:19:24;;;;;;;3.70;1.33;;;;;;;8.20;53.66;102115.75;5022556;28;20587;-76
2023/03/16 11:21:56;;;;;;;5.70;2.77;;;;;;;8.55;58.21;102061.72;5014567;28;20218;-77
2023/03/16 11:24:29;;;;;;;7.43;2.93;;;;;;;8.60;54.89;102024.47;5015212;28;20261;-77
2023/03/16 11:26:59;;;;;;;3.60;1.70;;;;;;;8.75;54.81;101990.88;5009092;28;20230;-77
2023/03/16 11:29:37;;;;;;;3.23;1.50;;;;;;;8.85;55.12;101986.66;5015543;28;20242;-77
2023/03/16 11:32:07;;;;;;;1.03;1.03;;;;;;;8.98;52.00;101969.44;5016607;28;20290;-76
2023/03/16 11:34:35;;;;;;;1.93;1.03;;;;;;;9.33;53.92;101973.34;5006426;28;20223;-77
2023/03/16 11:37:12;;;;;;;1.87;1.33;;;;;;;9.47;47.42;101962.19;4995754;28;20591;-77
2023/03/16 11:39:51;;;;;;;1.67;1.20;;;;;;;9.84;49.59;102057.31;4996016;28;20207;-76